createdAt,value
2019-04-23T00:01:50.978Z,15.99
2019-04-23T00:04:23.955Z,15.91
2019-04-23T00:07:12.971Z,15.84
2019-04-23T00:12:01.283Z,15.67
2019-04-23T00:14:38.508Z,15.62
2019-04-23T00:17:04.635Z,15.54
2019-04-23T00:19:39.703Z,15.42
2019-04-23T00:22:37.053Z,15.28
2019-04-23T00:25:30.869Z,15.18
2019-04-23T00:27:45.773Z,14.94
2019-04-23T00:30:10.342Z,14.86
2019-04-23T00:32:39.238Z,14.74
2019-04-23T00:35:12.372Z,14.66
2019-04-23T00:37:40.380Z,14.57
2019-04-23T00:40:19.188Z,14.39
2019-04-23T00:42:47.933Z,14.27
2019-04-23T00:45:25.693Z,14.12
2019-04-23T00:47:57.643Z,14.04
2019-04-23T00:50:30.830Z,13.93
2019-04-23T00:53:01.979Z,13.87
2019-04-23T00:55:33.063Z,13.75
2019-04-23T00:58:10.389Z,13.74
2019-04-23T01:05:41.165Z,13.51
2019-04-23T01:13:43.131Z,13.23
2019-04-23T01:16:11.520Z,13.12
2019-04-23T01:18:51.329Z,13.12
2019-04-23T01:21:09.578Z,13.02
2019-04-23T01:24:04.404Z,12.94
2019-04-23T01:27:35.986Z,12.85
2019-04-23T01:29:51.805Z,12.79
2019-04-23T01:32:20.709Z,12.73
2019-04-23T01:34:59.412Z,12.64
2019-04-23T01:37:25.658Z,12.60
2019-04-23T01:39:57.811Z,12.56
2019-04-23T01:42:40.719Z,12.46
2019-04-23T01:45:06.990Z,12.33
2019-04-23T01:47:38.835Z,12.27
2019-04-23T01:50:14.272Z,12.17
2019-04-23T01:52:45.578Z,12.05
2019-04-23T01:55:17.174Z,11.89
2019-04-23T02:05:27.513Z,11.86
2019-04-23T02:07:59.634Z,11.85
2019-04-23T02:10:35.129Z,11.81
2019-04-23T02:13:01.811Z,11.70
2019-04-23T02:15:34.940Z,11.63
2019-04-23T02:20:39.249Z,11.39
2019-04-23T02:23:30.055Z,11.33
2019-04-23T02:28:26.707Z,11.17
2019-04-23T02:33:44.008Z,10.99
2019-04-23T02:36:07.922Z,10.97
2019-04-23T02:38:46.278Z,10.94
2019-04-23T02:43:36.142Z,10.92
2019-04-23T02:46:09.282Z,10.83
2019-04-23T02:48:59.893Z,10.76
2019-04-23T02:59:08.045Z,10.41
2019-04-23T03:06:56.010Z,10.35
2019-04-23T03:09:12.935Z,10.34
2019-04-23T03:12:15.983Z,10.19
2019-04-23T03:19:38.236Z,10.05
2019-04-23T03:25:07.134Z,9.97
2019-04-23T03:27:37.415Z,10.00
2019-04-23T03:30:16.277Z,9.98
2019-04-23T03:32:52.675Z,9.90
2019-04-23T03:35:09.332Z,9.70
2019-04-23T03:37:40.087Z,9.61
2019-04-23T03:40:18.626Z,9.61
2019-04-23T03:47:48.694Z,9.58
2019-04-23T03:55:43.413Z,9.29
2019-04-23T03:58:07.647Z,9.30
2019-04-23T04:00:37.209Z,9.37
2019-04-23T04:03:50.226Z,9.37
2019-04-23T04:11:09.607Z,9.25
2019-04-23T04:13:15.130Z,9.17
2019-04-23T04:18:40.787Z,9.04
2019-04-23T04:21:08.505Z,9.10
2019-04-23T04:26:02.241Z,9.02
2019-04-23T04:28:28.648Z,8.96
2019-04-23T04:30:54.313Z,8.87
2019-04-23T04:36:14.348Z,8.94
2019-04-23T04:38:40.141Z,8.94
2019-04-23T04:41:06.017Z,8.95
2019-04-23T04:44:04.934Z,9.00
2019-04-23T04:46:21.274Z,8.91
2019-04-23T04:48:49.242Z,8.90
2019-04-23T04:51:37.850Z,8.91
2019-04-23T04:56:40.447Z,9.05
2019-04-23T04:58:52.908Z,9.03
2019-04-23T05:01:23.159Z,9.11
2019-04-23T05:03:43.242Z,9.12
2019-04-23T05:06:42.656Z,9.17
2019-04-23T05:09:14.175Z,9.22
2019-04-23T05:11:51.872Z,9.22
2019-04-23T05:14:23.472Z,9.32
2019-04-23T05:16:35.677Z,9.38
2019-04-23T05:21:54.429Z,9.52
2019-04-23T05:24:22.075Z,9.62
2019-04-23T05:26:51.516Z,9.74
2019-04-23T05:29:27.598Z,9.84
2019-04-23T05:31:52.962Z,9.89
2019-04-23T05:34:28.854Z,9.98
2019-04-23T05:37:00.309Z,10.15
2019-04-23T05:39:38.686Z,10.29
2019-04-23T05:42:04.317Z,10.37
2019-04-23T05:47:15.992Z,10.47
2019-04-23T05:49:47.423Z,10.55
2019-04-23T05:52:16.207Z,10.64
2019-04-23T05:57:20.537Z,10.88
2019-04-23T06:00:00.302Z,11.02
2019-04-23T06:02:26.271Z,11.13
2019-04-23T06:05:02.158Z,11.24
2019-04-23T06:12:31.925Z,11.64
2019-04-23T06:15:05.657Z,11.83
2019-04-23T06:17:37.727Z,12.06
2019-04-23T06:25:30.930Z,12.66
2019-04-23T06:30:26.503Z,13.21
2019-04-23T06:32:52.138Z,13.50
2019-04-23T06:35:27.150Z,13.89
2019-04-23T06:38:26.068Z,14.28
2019-04-23T06:40:27.561Z,14.62
2019-04-23T06:45:45.300Z,15.40
2019-04-23T06:48:21.813Z,15.74
2019-04-23T06:51:02.381Z,16.05
2019-04-23T06:53:21.474Z,16.33
2019-04-23T06:55:59.913Z,16.65
2019-04-23T06:58:36.153Z,16.82
2019-04-23T07:01:01.969Z,17.01
2019-04-23T07:03:37.125Z,17.27
2019-04-23T07:09:07.171Z,17.69
2019-04-23T07:11:23.235Z,17.98
2019-04-23T07:13:54.597Z,18.36
2019-04-23T07:16:17.910Z,18.86
2019-04-23T07:18:48.933Z,19.64
2019-04-23T07:21:22.057Z,19.94
2019-04-23T07:24:00.374Z,19.92
2019-04-23T07:29:04.995Z,20.42
2019-04-23T07:31:48.357Z,20.48
2019-04-23T07:36:40.607Z,21.26
2019-04-23T07:39:25.574Z,21.32
2019-04-23T07:42:24.908Z,21.14
2019-04-23T07:45:14.223Z,21.55
2019-04-23T07:48:15.240Z,21.63
2019-04-23T07:50:39.418Z,21.95
2019-04-23T07:58:21.809Z,22.11
2019-04-23T08:00:57.029Z,22.16
2019-04-23T08:05:43.976Z,22.49
2019-04-23T08:08:18.315Z,22.64
2019-04-23T08:11:31.328Z,22.94
2019-04-23T08:13:50.660Z,22.75
2019-04-23T08:16:28.169Z,22.22
2019-04-23T08:24:06.633Z,22.15
2019-04-23T08:29:30.265Z,22.93
2019-04-23T08:32:00.335Z,23.24
2019-04-23T08:39:42.156Z,23.26
2019-04-23T08:42:27.077Z,23.19
2019-04-23T08:48:18.729Z,24.84
2019-04-23T08:50:50.859Z,26.04
2019-04-23T08:53:35.758Z,27.00
2019-04-23T08:55:49.349Z,27.55
2019-04-23T09:03:25.255Z,29.50
2019-04-23T09:06:02.508Z,29.07
2019-04-23T09:18:37.137Z,29.25
2019-04-23T09:26:06.173Z,30.08
2019-04-23T09:31:56.954Z,29.41
2019-04-23T09:34:09.885Z,29.52
2019-04-23T09:36:59.676Z,30.28
2019-04-23T09:39:34.609Z,30.70
2019-04-23T09:42:19.408Z,30.88
2019-04-23T09:45:18.884Z,30.20
2019-04-23T09:48:03.541Z,30.28
2019-04-23T09:50:38.362Z,29.84
2019-04-23T09:55:46.747Z,29.29
2019-04-23T10:03:07.967Z,27.51
2019-04-23T10:05:33.558Z,27.46
2019-04-23T10:08:05.118Z,28.84
2019-04-23T10:10:28.176Z,29.44
2019-04-23T10:12:59.944Z,29.65
2019-04-23T10:15:36.606Z,29.91
2019-04-23T10:18:04.593Z,30.57
2019-04-23T10:20:36.285Z,30.04
2019-04-23T10:23:08.247Z,29.36
2019-04-23T10:25:40.955Z,29.77
2019-04-23T10:28:24.649Z,29.59
2019-04-23T10:30:56.576Z,29.92
2019-04-23T10:33:27.647Z,30.20
2019-04-23T10:36:06.299Z,30.97
2019-04-23T10:38:32.719Z,31.15
2019-04-23T10:41:04.501Z,31.66
2019-04-23T10:43:38.778Z,31.66
2019-04-23T10:46:45.596Z,32.19
2019-04-23T10:52:07.575Z,33.12
2019-04-23T11:15:38.377Z,31.98
2019-04-23T11:17:59.183Z,32.31
2019-04-23T11:20:30.676Z,33.40
2019-04-23T11:22:48.091Z,33.40
2019-04-23T11:28:10.271Z,32.22
2019-04-23T11:35:50.752Z,34.79
2019-04-23T11:38:39.712Z,35.44
2019-04-23T11:40:38.265Z,37.18
2019-04-23T11:43:20.729Z,38.17
2019-04-23T11:53:28.240Z,39.22
2019-04-23T11:55:57.364Z,39.35
2019-04-23T11:58:26.906Z,41.35
2019-04-23T12:04:21.542Z,41.93
2019-04-23T12:06:55.779Z,42.96
2019-04-23T12:09:40.351Z,43.66
2019-04-23T12:12:02.215Z,42.74
2019-04-23T12:17:22.617Z,44.58
2019-04-23T12:25:06.592Z,44.78
2019-04-23T12:27:27.592Z,44.82
2019-04-23T12:30:25.210Z,44.42
2019-04-23T12:35:29.080Z,44.03
2019-04-23T12:38:21.932Z,44.18
2019-04-23T12:40:45.984Z,41.89
2019-04-23T12:43:19.137Z,40.35
2019-04-23T12:45:46.923Z,40.71
2019-04-23T12:48:34.990Z,41.61
2019-04-23T12:53:30.437Z,41.95
2019-04-23T12:56:06.987Z,40.10
2019-04-23T12:58:38.241Z,36.63
2019-04-23T13:01:05.345Z,36.63
2019-04-23T13:03:39.204Z,35.33
2019-04-23T13:06:08.091Z,34.09
2019-04-23T13:08:46.634Z,33.79
2019-04-23T13:11:13.720Z,33.58
2019-04-23T13:16:25.336Z,34.05
2019-04-23T13:18:50.089Z,34.49
2019-04-23T13:21:51.442Z,35.38
2019-04-23T13:24:33.141Z,36.14
2019-04-23T13:27:10.755Z,37.17
2019-04-23T13:29:57.698Z,37.39
2019-04-23T13:32:17.123Z,36.96
2019-04-23T13:35:14.758Z,37.17
2019-04-23T13:37:31.522Z,38.21
2019-04-23T13:39:52.210Z,37.66
2019-04-23T13:42:31.871Z,39.12
2019-04-23T13:44:57.506Z,38.79
2019-04-23T13:47:38.214Z,37.03
2019-04-23T13:50:10.865Z,36.19
2019-04-23T13:52:59.851Z,34.21
2019-04-23T14:03:37.174Z,35.67
2019-04-23T14:08:47.296Z,31.45
2019-04-23T14:11:19.437Z,32.46
2019-04-23T14:16:37.165Z,33.08
2019-04-23T14:18:59.174Z,33.39
2019-04-23T14:28:55.408Z,32.34
2019-04-23T14:31:35.749Z,31.14
2019-04-23T14:36:52.121Z,28.63
2019-04-23T14:39:14.116Z,27.97
2019-04-23T14:41:47.184Z,28.34
2019-04-23T14:46:58.358Z,26.92
2019-04-23T14:52:02.474Z,26.61
2019-04-23T14:55:05.326Z,26.61
2019-04-23T14:57:15.925Z,26.05
2019-04-23T14:59:37.647Z,25.64
2019-04-23T15:02:18.393Z,26.03
2019-04-23T15:04:47.942Z,26.06
2019-04-23T15:07:27.934Z,26.49
2019-04-23T15:10:01.630Z,26.25
2019-04-23T15:12:25.958Z,26.48
2019-04-23T15:15:06.336Z,26.02
2019-04-23T15:17:27.275Z,26.14
2019-04-23T15:20:02.829Z,25.88
2019-04-23T15:22:50.989Z,26.11
2019-04-23T15:25:19.404Z,26.11
2019-04-23T15:30:05.770Z,25.73
2019-04-23T15:35:23.528Z,25.64
2019-04-23T15:38:11.600Z,25.54
2019-04-23T15:42:56.173Z,25.40
2019-04-23T15:45:22.866Z,25.37
2019-04-23T15:47:58.818Z,25.30
2019-04-23T15:50:30.430Z,25.23
2019-04-23T15:55:33.923Z,25.21
2019-04-23T15:58:16.450Z,25.13
2019-04-23T16:00:36.638Z,25.10
2019-04-23T16:02:43.093Z,25.09
2019-04-23T16:05:15.205Z,25.15
2019-04-23T16:08:03.374Z,25.24
2019-04-23T16:10:54.708Z,25.29
2019-04-23T16:13:20.926Z,25.27
2019-04-23T16:15:56.619Z,25.13
2019-04-23T16:18:37.030Z,25.25
2019-04-23T16:21:10.640Z,25.26
2019-04-23T16:23:37.750Z,25.42
2019-04-23T16:26:09.923Z,25.09
2019-04-23T16:29:00.013Z,25.09
2019-04-23T16:31:24.094Z,24.91
2019-04-23T16:33:57.015Z,24.64
2019-04-23T16:36:24.935Z,24.44
2019-04-23T16:38:58.486Z,24.22
2019-04-23T16:41:33.919Z,24.19
2019-04-23T16:44:06.748Z,24.17
2019-04-23T16:46:33.760Z,23.93
2019-04-23T16:49:14.833Z,23.96
2019-04-23T16:51:57.154Z,23.77
2019-04-23T16:54:16.974Z,24.01
2019-04-23T16:57:01.163Z,23.94
2019-04-23T16:59:18.474Z,23.84
2019-04-23T17:01:52.721Z,23.90
2019-04-23T17:04:24.288Z,23.80
2019-04-23T17:09:26.346Z,23.83
2019-04-23T17:14:25.915Z,23.63
2019-04-23T17:16:53.517Z,23.46
2019-04-23T17:24:39.914Z,23.32
2019-04-23T17:27:20.094Z,23.13
2019-04-23T17:29:49.153Z,23.01
2019-04-23T17:32:28.097Z,22.86
2019-04-23T17:35:09.604Z,22.66
2019-04-23T17:37:57.909Z,22.45
2019-04-23T17:40:17.788Z,22.32
2019-04-23T17:43:04.804Z,22.18
2019-04-23T17:45:32.335Z,22.01
2019-04-23T17:48:24.024Z,21.81
2019-04-23T17:50:56.753Z,21.62
2019-04-23T17:53:25.322Z,21.45
2019-04-23T17:56:11.888Z,21.18
2019-04-23T17:58:34.232Z,21.13
2019-04-23T18:06:32.146Z,20.68
2019-04-23T18:14:02.324Z,20.16
2019-04-23T18:22:08.894Z,19.78
2019-04-23T18:24:57.814Z,19.62
2019-04-23T18:27:23.498Z,19.43
2019-04-23T18:30:11.743Z,19.23
2019-04-23T18:43:30.900Z,18.25
2019-04-23T18:45:53.413Z,18.12
2019-04-23T18:53:45.619Z,17.82
2019-04-23T19:01:10.656Z,17.41
2019-04-23T19:04:29.004Z,17.21
2019-04-23T19:06:48.572Z,17.12
2019-04-23T19:12:56.967Z,16.93
2019-04-23T19:15:35.336Z,16.72
2019-04-23T19:17:56.611Z,16.52
2019-04-23T19:25:38.635Z,16.07
2019-04-23T19:28:29.747Z,15.93
2019-04-23T19:31:06.272Z,15.81
2019-04-23T19:33:53.495Z,15.70
2019-04-23T19:36:13.821Z,15.55
2019-04-23T19:38:43.507Z,15.42
2019-04-23T19:41:19.569Z,15.43
2019-04-23T19:43:50.191Z,15.30
2019-04-23T19:46:21.950Z,15.15
2019-04-23T19:51:26.279Z,15.03
2019-04-23T19:54:01.731Z,14.87
2019-04-23T19:58:56.715Z,14.76
2019-04-23T20:01:29.159Z,14.64
2019-04-23T20:03:57.591Z,14.61
2019-04-23T20:06:58.522Z,14.62
2019-04-23T20:11:53.051Z,14.37
2019-04-23T20:14:09.664Z,14.25
2019-04-23T20:17:16.475Z,14.21
2019-04-23T20:19:28.036Z,14.08
2019-04-23T20:22:08.999Z,13.95
2019-04-23T20:24:53.356Z,13.90
2019-04-23T20:26:59.308Z,13.84
2019-04-23T20:29:50.920Z,13.74
2019-04-23T20:33:38.936Z,13.60
2019-04-23T20:35:13.521Z,13.52
2019-04-23T20:42:52.577Z,13.16
2019-04-23T20:45:21.447Z,13.14
2019-04-23T20:47:52.812Z,13.13
2019-04-23T20:50:21.864Z,13.17
2019-04-23T20:52:54.657Z,13.01
2019-04-23T20:55:41.188Z,12.90
2019-04-23T20:58:18.189Z,12.81
2019-04-23T21:03:55.216Z,12.74
2019-04-23T21:09:10.177Z,12.63
2019-04-23T21:11:33.013Z,12.51
2019-04-23T21:14:09.445Z,12.46
2019-04-23T21:16:31.109Z,12.34
2019-04-23T21:19:10.579Z,12.29
2019-04-23T21:21:33.526Z,12.21
2019-04-23T21:26:37.322Z,12.11
2019-04-23T21:29:04.108Z,12.06
2019-04-23T21:31:48.354Z,11.98
2019-04-23T21:34:21.592Z,11.90
2019-04-23T21:36:51.088Z,11.89
2019-04-23T21:40:00.956Z,11.82
2019-04-23T21:42:54.479Z,11.67
2019-04-23T21:45:02.584Z,11.64
2019-04-23T21:50:10.669Z,11.56
2019-04-23T21:52:39.734Z,11.58
2019-04-23T21:55:14.841Z,11.48
2019-04-23T21:57:53.757Z,11.44
2019-04-23T22:00:19.008Z,11.38
2019-04-23T22:05:24.708Z,11.30
2019-04-23T22:10:45.865Z,11.08
2019-04-23T22:13:12.384Z,10.95
2019-04-23T22:15:34.438Z,10.96
2019-04-23T22:17:59.695Z,10.93
2019-04-23T22:20:38.337Z,10.89
2019-04-23T22:23:18.194Z,10.92
2019-04-23T22:25:47.229Z,10.89
2019-04-23T22:28:10.401Z,10.87
2019-04-23T22:30:49.675Z,10.80
2019-04-23T22:35:59.201Z,10.63
2019-04-23T22:38:18.759Z,10.58
2019-04-23T22:40:56.410Z,10.54
2019-04-23T22:43:20.843Z,10.53
2019-04-23T22:46:02.941Z,10.44
2019-04-23T22:48:46.142Z,10.45
2019-04-23T22:51:11.125Z,10.38
2019-04-23T22:53:41.788Z,10.29
2019-04-23T22:56:19.685Z,10.17
2019-04-23T22:58:56.410Z,10.12
2019-04-23T23:01:38.627Z,10.06
2019-04-23T23:04:05.006Z,10.07
2019-04-23T23:06:48.595Z,9.97
2019-04-23T23:09:18.975Z,9.87
2019-04-23T23:11:49.782Z,9.77
2019-04-23T23:19:21.848Z,9.48
2019-04-23T23:24:18.619Z,9.40
2019-04-23T23:26:57.320Z,9.40
2019-04-23T23:29:32.301Z,9.38
2019-04-23T23:32:02.169Z,9.31
2019-04-23T23:34:42.024Z,9.33
2019-04-23T23:39:49.756Z,9.26
2019-04-23T23:42:09.828Z,9.29
2019-04-23T23:44:57.063Z,9.25
2019-04-23T23:47:15.084Z,9.14
2019-04-23T23:49:56.358Z,9.11
2019-04-23T23:52:21.137Z,9.08
2019-04-23T23:55:01.085Z,9.02
2019-04-23T23:57:24.729Z,9.04
